Buoy 41997

sailwx.info

Track history (hours):
 
Tides and Currents Weather Stations Pressure Air Temp Water Temp Dewpoint Dewpoint Depression Visibility Wind Speed Wind Dir Waves Ship Positions

Drifting buoy 41997

Last reported at 2014-Nov-26 00:30 UTC. Time now 2014-Nov-26 04:07 UTC.
Position N 26°35' W 037°14'.

Water temperature 24.8 ° C

Date/timePositionNaut miles runAvg speedWind from/ knotsBaromVisibWave heightAir tempDewpointWater temp
2014-Nov-26 00:30N 26°35' W 037°14'0 0.0 24.8
2014-Nov-25 23:45N 26°35' W 037°14'0 0.9 24.9
2014-Nov-25 23:30N 26°35' W 037°14'1 1.4 24.8
2014-Nov-25 22:45N 26°36' W 037°13'0 0.0 24.8
2014-Nov-25 21:30N 26°36' W 037°13'1 0.7 24.8
2014-Nov-25 19:45N 26°37' W 037°12'0 0.0 24.9
2014-Nov-25 19:00N 26°37' W 037°12'1 2.1 24.8
2014-Nov-25 18:45N 26°37' W 037°11'0 0.0 24.9
2014-Nov-25 18:15N 26°37' W 037°11'0 0.0 24.9
2014-Nov-25 18:00N 26°37' W 037°11'0 0.3 24.9
2014-Nov-25 17:15N 26°36' W 037°11'0 0.8 24.8
2014-Nov-25 17:00N 26°37' W 037°11'0 0.1 24.9
2014-Nov-25 15:30N 26°37' W 037°11'0 0.0 24.9
2014-Nov-25 15:15N 26°37' W 037°11'1 0.3 24.9
2014-Nov-25 12:30N 26°37' W 037°10'1 2.4 24.8
2014-Nov-25 12:15N 26°37' W 037°10'1 1.1 24.8
2014-Nov-25 11:30N 26°37' W 037°10'0 0.0 24.8
2014-Nov-25 09:15N 26°37' W 037°10'0 0.0 24.8
2014-Nov-25 09:00N 26°37' W 037°10'1 2.5 24.8
2014-Nov-25 08:30N 26°37' W 037°08'0 0.0 24.8
2014-Nov-25 07:30N 26°37' W 037°08'0 0.0 24.8
2014-Nov-25 07:00N 26°37' W 037°08'0 0.0 24.8
2014-Nov-25 06:45N 26°37' W 037°08'1 0.7 24.8
2014-Nov-25 06:00N 26°37' W 037°09'1 4.8 24.8
2014-Nov-25 05:45N 26°38' W 037°09'0 1.1 24.8
2014-Nov-25 05:30N 26°38' W 037°09'1 0.7 24.8
2014-Nov-25 04:00N 26°37' W 037°08'0 0.0 24.8
2014-Nov-25 00:45N 26°37' W 037°08'0 0.0 24.9
2014-Nov-25 00:00N 26°37' W 037°08'0 0.0 24.9
2014-Nov-24 23:15N 26°37' W 037°08'1 2.1 24.9
2014-Nov-24 23:00N 26°37' W 037°08'0 0.0 24.9
2014-Nov-24 22:00N 26°37' W 037°08'1 0.7 24.9
2014-Nov-24 20:15N 26°38' W 037°07'1 0.5 24.9
2014-Nov-24 19:00N 26°37' W 037°07'1 4.8 25.0
2014-Nov-24 18:45N 26°38' W 037°07'0 0.0 25.0
2014-Nov-24 18:30N 26°38' W 037°07'0 0.0 25.0
2014-Nov-24 17:30N 26°38' W 037°07'1 3.2 25.0
2014-Nov-24 17:15N 26°38' W 037°07'1 3.2 25.0
2014-Nov-24 17:00N 26°38' W 037°07'1 0.5 25.0
2014-Nov-24 15:30N 26°38' W 037°07'1 0.3 25.0
2014-Nov-24 13:30N 26°38' W 037°07'0 0.0 24.9
2014-Nov-24 12:45N 26°38' W 037°07'0 0.0 24.9
2014-Nov-24 12:00N 26°38' W 037°07'1 4.9 24.9
2014-Nov-24 11:45N 26°38' W 037°05'0 0.0 24.9
2014-Nov-24 11:00N 26°38' W 037°05'1 0.3 24.9
2014-Nov-24 09:00N 26°38' W 037°06'0 0.0 24.9
2014-Nov-24 08:00N 26°38' W 037°06'0 0.0 24.9
2014-Nov-24 07:45N 26°38' W 037°06'0 0.0 24.9
2014-Nov-24 07:15N 26°38' W 037°06'1 0.5 24.9
2014-Nov-24 06:00N 26°39' W 037°06'0 0.0 24.9
2014-Nov-24 05:45N 26°39' W 037°06'1 0.4 24.9
2014-Nov-24 04:15N 26°40' W 037°06'0 0.0 24.9
2014-Nov-24 04:00N 26°40' W 037°06'1 0.2 24.9
2014-Nov-24 00:15N 26°39' W 037°07'0 0.0 24.9
2014-Nov-23 23:30N 26°39' W 037°07'2 0.9 24.9
2014-Nov-23 21:45N 26°39' W 037°05'0 0.0 24.9
2014-Nov-23 20:45N 26°39' W 037°05'0 0.0 24.9
2014-Nov-23 20:30N 26°39' W 037°05'0 0.0 24.9
2014-Nov-23 19:15N 26°39' W 037°05'1 2.1 24.9
2014-Nov-23 19:00N 26°39' W 037°04'0 0.0 24.9
2014-Nov-23 17:45N 26°39' W 037°04'0 0.0 24.9
2014-Nov-23 17:30N 26°39' W 037°04'1 4.9 24.9
2014-Nov-23 17:15N 26°40' W 037°03'0 0.0 25.0
2014-Nov-23 15:45N 26°40' W 037°03'0 0.0 24.9
2014-Nov-23 15:30N 26°40' W 037°03'1 0.3 24.9
2014-Nov-23 12:15N 26°40' W 037°02'0 0.0 24.9
2014-Nov-23 12:00N 26°40' W 037°02'0 0.0 24.8
2014-Nov-23 11:15N 26°40' W 037°02'0 0.0 24.8
2014-Nov-23 10:30N 26°40' W 037°02'0 0.0 24.8
2014-Nov-23 09:30N 26°40' W 037°02'0 0.0 24.8
2014-Nov-23 08:30N 26°40' W 037°02'2 3.2 24.8
2014-Nov-23 08:00N 26°38' W 037°01'0 0.0 24.8
2014-Nov-23 07:45N 26°38' W 037°01'0 0.0 24.8
2014-Nov-23 07:00N 26°38' W 037°01'0 0.0 24.8
2014-Nov-23 06:45N 26°38' W 037°01'3 5.8 24.8
2014-Nov-23 06:15N 26°41' W 037°02'0 0.0 24.8
2014-Nov-23 06:00N 26°41' W 037°02'0 0.0 24.8
2014-Nov-23 04:30N 26°41' W 037°02'0 0.0 24.8
2014-Nov-23 04:15N 26°41' W 037°02'1 0.2 24.8
2014-Nov-22 23:45N 26°41' W 037°01'1 0.8 24.9
2014-Nov-22 23:00N 26°40' W 037°01'0 0.0 24.9
2014-Nov-22 22:15N 26°40' W 037°01'0 0.0 24.9
2014-Nov-22 22:00N 26°40' W 037°01'0 0.0 24.9
2014-Nov-22 21:30N 26°40' W 037°01'0 0.0 25.0
2014-Nov-22 21:15N 26°40' W 037°01'1 0.8 25.0
2014-Nov-22 19:45N 26°40' W 037°00'0 0.8 25.0
2014-Nov-22 19:30N 26°40' W 037°00'0 0.1 25.0
2014-Nov-22 17:45N 26°40' W 037°00'1 2.4 25.0
2014-Nov-22 17:30N 26°40' W 037°00'0 0.0 25.0
2014-Nov-22 16:00N 26°40' W 037°00'0 0.0 25.0
2014-Nov-22 15:45N 26°40' W 037°00'1 0.4 25.0
2014-Nov-22 12:30N 26°41' W 036°59'1 1.6 24.9
2014-Nov-22 11:45N 26°41' W 036°58'0 0.0 24.9
2014-Nov-22 10:45N 26°41' W 036°58'0 0.1 24.9
2014-Nov-22 09:00N 26°42' W 036°58'0 0.1 24.9
2014-Nov-22 08:00N 26°41' W 036°58'0 0.0 24.9
2014-Nov-22 07:30N 26°41' W 036°58'0 0.0 24.9
2014-Nov-22 07:15N 26°41' W 036°58'2 2.8 24.9
2014-Nov-22 06:30N 26°43' W 036°56'0 0.0 24.9
2014-Nov-22 06:15N 26°43' W 036°56'0 0.0 24.9
2014-Nov-22 04:30N 26°43' W 036°56'0 0.0 24.9
2014-Nov-22 00:15N 26°43' W 036°56'0 0.0 25.0
2014-Nov-22 00:00N 26°43' W 036°56'1 2.1 25.0
2014-Nov-21 23:30N 26°43' W 036°58'2 8.6 25.0
2014-Nov-21 23:15N 26°43' W 036°55'0 0.3 25.0
2014-Nov-21 22:30N 26°43' W 036°55'0 0.3 25.0
2014-Nov-21 21:45N 26°43' W 036°55'1 0.4 25.0
2014-Nov-21 20:15N 26°44' W 036°55'0 0.0 25.0
2014-Nov-21 20:00N 26°44' W 036°55'2 9.7 25.0
2014-Nov-21 19:45N 26°46' W 036°53'2 9.7 25.0
2014-Nov-21 19:30N 26°44' W 036°55'2 1.6 25.0
2014-Nov-21 18:00N 26°46' W 036°53'0 0.0 25.0
2014-Nov-21 16:00N 26°46' W 036°53'2 0.4 25.0
2014-Nov-21 12:15N 26°46' W 036°52'0 0.0 25.0
2014-Nov-21 12:00N 26°46' W 036°52'0 0.0 25.0
2014-Nov-21 08:30N 26°46' W 036°52'1 2.4 24.9
2014-Nov-21 08:15N 26°46' W 036°52'1 2.4 24.9
2014-Nov-21 08:00N 26°46' W 036°52'0 0.0 24.9
2014-Nov-21 07:45N 26°46' W 036°52'1 0.8 24.9
2014-Nov-21 06:45N 26°46' W 036°52'311.6 24.9
2014-Nov-21 06:30N 26°49' W 036°50'0 0.0 24.9
2014-Nov-21 04:45N 26°49' W 036°50'0 0.0 25.0
2014-Nov-21 04:30N 26°49' W 036°50'0 0.0 25.0
2014-Nov-21 00:30N 26°49' W 036°50'1 0.7 25.1
2014-Nov-20 23:45N 26°49' W 036°51'1 1.1 25.1
2014-Nov-20 22:45N 26°49' W 036°50'1 0.3 25.1
2014-Nov-20 20:45N 26°48' W 036°50'0 0.0 25.1
2014-Nov-20 20:30N 26°48' W 036°50'0 0.0 25.1
2014-Nov-20 20:15N 26°48' W 036°50'0 0.0 25.1
2014-Nov-20 20:00N 26°48' W 036°50'0 0.0 25.1
2014-Nov-20 19:45N 26°48' W 036°50'1 0.5 25.1
2014-Nov-20 18:30N 26°49' W 036°50'0 0.0 25.1
2014-Nov-20 18:15N 26°49' W 036°50'0 0.0 25.1
2014-Nov-20 18:00N 26°49' W 036°50'2 1.0 25.1
2014-Nov-20 16:15N 26°49' W 036°48'0 0.0 25.2
2014-Nov-20 16:00N 26°49' W 036°48'1 0.4 25.2
2014-Nov-20 12:30N 26°50' W 036°47'0 0.0 25.2
2014-Nov-20 12:15N 26°50' W 036°47'1 1.8 25.2
2014-Nov-20 11:30N 26°51' W 036°46'0 0.0 25.2
2014-Nov-20 09:00N 26°51' W 036°46'1 1.2 25.2
2014-Nov-20 08:30N 26°52' W 036°46'1 2.4 25.2
2014-Nov-20 08:15N 26°51' W 036°46'1 0.6 25.2
2014-Nov-20 07:15N 26°52' W 036°46'1 1.2 25.2
2014-Nov-20 06:45N 26°52' W 036°46'0 0.0 25.2
2014-Nov-20 05:00N 26°52' W 036°46'2 6.4 25.2
2014-Nov-20 04:45N 26°53' W 036°45'1 0.1 25.2
2014-Nov-20 00:45N 26°54' W 036°45'1 0.7 25.2
2014-Nov-20 00:00N 26°54' W 036°46'1 1.1 25.3
2014-Nov-19 23:15N 26°55' W 036°45'0 0.0 25.3
2014-Nov-19 23:00N 26°55' W 036°45'1 0.8 25.3
2014-Nov-19 21:15N 26°53' W 036°44'0 0.0 25.3
2014-Nov-19 19:45N 26°53' W 036°44'1 1.1 25.3
2014-Nov-19 19:00N 26°54' W 036°45'0 0.0 25.3
2014-Nov-19 18:30N 26°54' W 036°45'0 0.0 25.3
2014-Nov-19 18:15N 26°54' W 036°45'2 0.9 25.3
2014-Nov-19 16:30N 26°54' W 036°43'0 0.0 25.4
2014-Nov-19 16:15N 26°54' W 036°43'1 0.7 25.4
2014-Nov-19 14:45N 26°54' W 036°42'0 0.0 25.3
2014-Nov-19 13:30N 26°54' W 036°42'1 0.7 25.3
2014-Nov-19 12:45N 26°54' W 036°41'1 0.7 25.3
2014-Nov-19 12:00N 26°54' W 036°41'0 0.0 25.3
2014-Nov-19 11:45N 26°54' W 036°41'0 0.0 25.3
2014-Nov-19 09:00N 26°54' W 036°41'0 0.0 25.3
2014-Nov-19 08:45N 26°54' W 036°41'1 1.1 25.3
2014-Nov-19 07:45N 26°54' W 036°40'1 1.1 25.3
2014-Nov-19 07:00N 26°55' W 036°40'1 0.5 25.3
2014-Nov-19 05:15N 26°55' W 036°40'1 4.3 25.3
2014-Nov-19 05:00N 26°55' W 036°38'0 0.0 25.3
2014-Nov-19 03:30N 26°55' W 036°38'0 0.0 25.3
2014-Nov-18 23:30N 26°55' W 036°38'1 1.1 25.3
2014-Nov-18 22:45N 26°55' W 036°38'0 0.0 25.3
2014-Nov-18 21:45N 26°55' W 036°38'1 0.6 25.3
2014-Nov-18 20:00N 26°55' W 036°37'0 0.6 25.3
2014-Nov-18 19:30N 26°55' W 036°37'0 0.0 25.3
2014-Nov-18 19:15N 26°55' W 036°37'0 0.4 25.3
2014-Nov-18 18:30N 26°55' W 036°37'0 0.2 25.3
2014-Nov-18 17:00N 26°55' W 036°37'0 0.0 25.3
2014-Nov-18 16:45N 26°55' W 036°37'0 0.0 25.3
2014-Nov-18 16:30N 26°55' W 036°37'2 1.5 25.3
2014-Nov-18 15:00N 26°56' W 036°35'2 8.9 25.3
2014-Nov-18 14:45N 26°55' W 036°37'5 3.1 25.3
2014-Nov-18 13:15N 26°56' W 036°32'0 0.4 25.3
2014-Nov-18 12:15N 26°56' W 036°32'0 0.0 25.3
2014-Nov-18 11:30N 26°56' W 036°32'0 0.0 25.4
2014-Nov-18 11:15N 26°56' W 036°32'2 0.5 25.4
2014-Nov-18 08:00N 26°56' W 036°30'2 6.9 25.5
2014-Nov-18 07:45N 26°56' W 036°32'2 3.4 25.5
2014-Nov-18 07:15N 26°56' W 036°30'0 0.0 25.5
2014-Nov-18 07:00N 26°56' W 036°30'1 0.3 25.5
2014-Nov-18 05:15N 26°57' W 036°30'0 0.0 25.6
2014-Nov-18 03:45N 26°57' W 036°30'0 0.0 25.5
2014-Nov-18 03:30N 26°57' W 036°30'2 0.6 25.6
2014-Nov-18 00:00N 26°58' W 036°28'0 0.0 25.6
2014-Nov-17 23:45N 26°58' W 036°28'1 1.2 25.6
2014-Nov-17 23:15N 26°57' W 036°28'1 4.3 25.6
2014-Nov-17 23:00N 26°57' W 036°26'1 0.2 25.7
2014-Nov-17 19:45N 26°58' W 036°26'1 0.6 25.7
2014-Nov-17 18:45N 26°57' W 036°26'0 0.0 25.7
2014-Nov-17 18:00N 26°57' W 036°26'0 0.0 25.8
2014-Nov-17 17:00N 26°57' W 036°26'0 0.0 25.8
2014-Nov-17 16:45N 26°57' W 036°26'1 0.4 25.8
2014-Nov-17 15:15N 26°58' W 036°26'0 0.0 25.7
2014-Nov-17 15:00N 26°58' W 036°26'1 0.4 25.7
2014-Nov-17 12:45N 26°58' W 036°25'1 4.3 25.6
2014-Nov-17 12:30N 26°58' W 036°24'0 0.0 25.6
2014-Nov-17 11:45N 26°58' W 036°24'0 0.0 25.6
2014-Nov-17 11:00N 26°58' W 036°24'1 0.2 25.5
2014-Nov-17 08:30N 26°58' W 036°24'1 4.3 25.5
2014-Nov-17 08:15N 26°58' W 036°25'1 1.4 25.5
2014-Nov-17 07:30N 26°58' W 036°24'0 0.0 25.5
2014-Nov-17 07:15N 26°58' W 036°24'0 0.0 25.5
2014-Nov-17 07:00N 26°58' W 036°24'0 0.0 25.5
2014-Nov-17 06:45N 26°58' W 036°24'0 0.0 25.5
2014-Nov-17 05:30N 26°58' W 036°24'0 0.0 25.5
2014-Nov-17 05:15N 26°58' W 036°24'1 0.7 25.6
2014-Nov-17 03:45N 26°58' W 036°23'0 0.0 25.6
2014-Nov-17 00:15N 26°58' W 036°23'0 0.0 25.6
2014-Nov-17 00:00N 26°58' W 036°23'1 1.6 25.6
2014-Nov-16 23:30N 26°57' W 036°22'0 0.0 25.7
2014-Nov-16 23:15N 26°57' W 036°22'1 0.9 25.7
2014-Nov-16 22:30N 26°57' W 036°22'1 0.3 25.7
2014-Nov-16 20:15N 26°56' W 036°22'1 2.4 25.9
2014-Nov-16 20:00N 26°57' W 036°22'1 1.2 25.9
2014-Nov-16 19:30N 26°56' W 036°22'0 0.0 25.9
2014-Nov-16 19:00N 26°56' W 036°22'1 1.1 25.9
2014-Nov-16 18:30N 26°56' W 036°21'1 1.0 26.0
2014-Nov-16 17:15N 26°56' W 036°20'0 0.0 26.1
2014-Nov-16 17:00N 26°56' W 036°20'0 0.0 26.1
2014-Nov-16 15:15N 26°56' W 036°20'1 0.5 25.9
2014-Nov-16 13:00N 26°57' W 036°20'0 0.0 25.7
2014-Nov-16 12:45N 26°57' W 036°20'1 1.1 25.7
2014-Nov-16 12:15N 26°56' W 036°20'0 0.0 25.6
2014-Nov-16 12:00N 26°56' W 036°20'1 0.7 25.6
2014-Nov-16 11:15N 26°56' W 036°19'1 0.4 25.6
2014-Nov-16 09:00N 26°56' W 036°20'1 3.2 25.5
2014-Nov-16 08:45N 26°56' W 036°19'1 0.6 25.5
2014-Nov-16 07:30N 26°56' W 036°20'0 0.0 25.5
2014-Nov-16 07:15N 26°56' W 036°20'1 2.1 25.5
2014-Nov-16 07:00N 26°56' W 036°19'1 1.2 25.5
2014-Nov-16 06:00N 26°55' W 036°19'0 0.0 25.5
2014-Nov-16 05:45N 26°55' W 036°19'0 0.0 25.5
2014-Nov-16 05:30N 26°55' W 036°19'2 1.5 25.5
2014-Nov-16 04:00N 26°54' W 036°17'0 0.0 25.5
2014-Nov-16 00:30N 26°54' W 036°17'   25.6
Track history (hours):
 
Tides and Currents Weather Stations Pressure Air Temp Water Temp Dewpoint Dewpoint Depression Visibility Wind Speed Wind Dir Waves Ship Positions

Drifting buoy 41997

Last reported at 2014-Nov-26 00:30 UTC. Time now 2014-Nov-26 04:07 UTC.
Position N 26°35' W 037°14'.

Water temperature 24.8 ° C

Date/timePositionNaut miles runAvg speedWind from/ knotsBaromVisibWave heightAir tempDewpointWater temp
2014-Nov-26 00:30N 26°35' W 037°14'0 0.0 24.8
2014-Nov-25 23:45N 26°35' W 037°14'0 0.9 24.9
2014-Nov-25 23:30N 26°35' W 037°14'1 1.4 24.8
2014-Nov-25 22:45N 26°36' W 037°13'0 0.0 24.8
2014-Nov-25 21:30N 26°36' W 037°13'1 0.7 24.8
2014-Nov-25 19:45N 26°37' W 037°12'0 0.0 24.9
2014-Nov-25 19:00N 26°37' W 037°12'1 2.1 24.8
2014-Nov-25 18:45N 26°37' W 037°11'0 0.0 24.9
2014-Nov-25 18:15N 26°37' W 037°11'0 0.0 24.9
2014-Nov-25 18:00N 26°37' W 037°11'0 0.3 24.9
2014-Nov-25 17:15N 26°36' W 037°11'0 0.8 24.8
2014-Nov-25 17:00N 26°37' W 037°11'0 0.1 24.9
2014-Nov-25 15:30N 26°37' W 037°11'0 0.0 24.9
2014-Nov-25 15:15N 26°37' W 037°11'1 0.3 24.9
2014-Nov-25 12:30N 26°37' W 037°10'1 2.4 24.8
2014-Nov-25 12:15N 26°37' W 037°10'1 1.1 24.8
2014-Nov-25 11:30N 26°37' W 037°10'0 0.0 24.8
2014-Nov-25 09:15N 26°37' W 037°10'0 0.0 24.8
2014-Nov-25 09:00N 26°37' W 037°10'1 2.5 24.8
2014-Nov-25 08:30N 26°37' W 037°08'0 0.0 24.8
2014-Nov-25 07:30N 26°37' W 037°08'0 0.0 24.8
2014-Nov-25 07:00N 26°37' W 037°08'0 0.0 24.8
2014-Nov-25 06:45N 26°37' W 037°08'1 0.7 24.8
2014-Nov-25 06:00N 26°37' W 037°09'1 4.8 24.8
2014-Nov-25 05:45N 26°38' W 037°09'0 1.1 24.8
2014-Nov-25 05:30N 26°38' W 037°09'1 0.7 24.8
2014-Nov-25 04:00N 26°37' W 037°08'0 0.0 24.8
2014-Nov-25 00:45N 26°37' W 037°08'0 0.0 24.9
2014-Nov-25 00:00N 26°37' W 037°08'0 0.0 24.9
2014-Nov-24 23:15N 26°37' W 037°08'1 2.1 24.9
2014-Nov-24 23:00N 26°37' W 037°08'0 0.0 24.9
2014-Nov-24 22:00N 26°37' W 037°08'1 0.7 24.9
2014-Nov-24 20:15N 26°38' W 037°07'1 0.5 24.9
2014-Nov-24 19:00N 26°37' W 037°07'1 4.8 25.0
2014-Nov-24 18:45N 26°38' W 037°07'0 0.0 25.0
2014-Nov-24 18:30N 26°38' W 037°07'0 0.0 25.0
2014-Nov-24 17:30N 26°38' W 037°07'1 3.2 25.0
2014-Nov-24 17:15N 26°38' W 037°07'1 3.2 25.0
2014-Nov-24 17:00N 26°38' W 037°07'1 0.5 25.0
2014-Nov-24 15:30N 26°38' W 037°07'1 0.3 25.0
2014-Nov-24 13:30N 26°38' W 037°07'0 0.0 24.9
2014-Nov-24 12:45N 26°38' W 037°07'0 0.0 24.9
2014-Nov-24 12:00N 26°38' W 037°07'1 4.9 24.9
2014-Nov-24 11:45N 26°38' W 037°05'0 0.0 24.9
2014-Nov-24 11:00N 26°38' W 037°05'1 0.3 24.9
2014-Nov-24 09:00N 26°38' W 037°06'0 0.0 24.9
2014-Nov-24 08:00N 26°38' W 037°06'0 0.0 24.9
2014-Nov-24 07:45N 26°38' W 037°06'0 0.0 24.9
2014-Nov-24 07:15N 26°38' W 037°06'1 0.5 24.9
2014-Nov-24 06:00N 26°39' W 037°06'0 0.0 24.9
2014-Nov-24 05:45N 26°39' W 037°06'1 0.4 24.9
2014-Nov-24 04:15N 26°40' W 037°06'0 0.0 24.9
2014-Nov-24 04:00N 26°40' W 037°06'1 0.2 24.9
2014-Nov-24 00:15N 26°39' W 037°07'0 0.0 24.9
2014-Nov-23 23:30N 26°39' W 037°07'2 0.9 24.9
2014-Nov-23 21:45N 26°39' W 037°05'0 0.0 24.9
2014-Nov-23 20:45N 26°39' W 037°05'0 0.0 24.9
2014-Nov-23 20:30N 26°39' W 037°05'0 0.0 24.9
2014-Nov-23 19:15N 26°39' W 037°05'1 2.1 24.9
2014-Nov-23 19:00N 26°39' W 037°04'0 0.0 24.9
2014-Nov-23 17:45N 26°39' W 037°04'0 0.0 24.9
2014-Nov-23 17:30N 26°39' W 037°04'1 4.9 24.9
2014-Nov-23 17:15N 26°40' W 037°03'0 0.0 25.0
2014-Nov-23 15:45N 26°40' W 037°03'0 0.0 24.9
2014-Nov-23 15:30N 26°40' W 037°03'1 0.3 24.9
2014-Nov-23 12:15N 26°40' W 037°02'0 0.0 24.9
2014-Nov-23 12:00N 26°40' W 037°02'0 0.0 24.8
2014-Nov-23 11:15N 26°40' W 037°02'0 0.0 24.8
2014-Nov-23 10:30N 26°40' W 037°02'0 0.0 24.8
2014-Nov-23 09:30N 26°40' W 037°02'0 0.0 24.8
2014-Nov-23 08:30N 26°40' W 037°02'2 3.2 24.8
2014-Nov-23 08:00N 26°38' W 037°01'0 0.0 24.8
2014-Nov-23 07:45N 26°38' W 037°01'0 0.0 24.8
2014-Nov-23 07:00N 26°38' W 037°01'0 0.0 24.8
2014-Nov-23 06:45N 26°38' W 037°01'3 5.8 24.8
2014-Nov-23 06:15N 26°41' W 037°02'0 0.0 24.8
2014-Nov-23 06:00N 26°41' W 037°02'0 0.0 24.8
2014-Nov-23 04:30N 26°41' W 037°02'0 0.0 24.8
2014-Nov-23 04:15N 26°41' W 037°02'1 0.2 24.8
2014-Nov-22 23:45N 26°41' W 037°01'1 0.8 24.9
2014-Nov-22 23:00N 26°40' W 037°01'0 0.0 24.9
2014-Nov-22 22:15N 26°40' W 037°01'0 0.0 24.9
2014-Nov-22 22:00N 26°40' W 037°01'0 0.0 24.9
2014-Nov-22 21:30N 26°40' W 037°01'0 0.0 25.0
2014-Nov-22 21:15N 26°40' W 037°01'1 0.8 25.0
2014-Nov-22 19:45N 26°40' W 037°00'0 0.8 25.0
2014-Nov-22 19:30N 26°40' W 037°00'0 0.1 25.0
2014-Nov-22 17:45N 26°40' W 037°00'1 2.4 25.0
2014-Nov-22 17:30N 26°40' W 037°00'0 0.0 25.0
2014-Nov-22 16:00N 26°40' W 037°00'0 0.0 25.0
2014-Nov-22 15:45N 26°40' W 037°00'1 0.4 25.0
2014-Nov-22 12:30N 26°41' W 036°59'1 1.6 24.9
2014-Nov-22 11:45N 26°41' W 036°58'0 0.0 24.9
2014-Nov-22 10:45N 26°41' W 036°58'0 0.1 24.9
2014-Nov-22 09:00N 26°42' W 036°58'0 0.1 24.9
2014-Nov-22 08:00N 26°41' W 036°58'0 0.0 24.9
2014-Nov-22 07:30N 26°41' W 036°58'0 0.0 24.9
2014-Nov-22 07:15N 26°41' W 036°58'2 2.8 24.9
2014-Nov-22 06:30N 26°43' W 036°56'0 0.0 24.9
2014-Nov-22 06:15N 26°43' W 036°56'0 0.0 24.9
2014-Nov-22 04:30N 26°43' W 036°56'0 0.0 24.9
2014-Nov-22 00:15N 26°43' W 036°56'0 0.0 25.0
2014-Nov-22 00:00N 26°43' W 036°56'1 2.1 25.0
2014-Nov-21 23:30N 26°43' W 036°58'2 8.6 25.0
2014-Nov-21 23:15N 26°43' W 036°55'0 0.3 25.0
2014-Nov-21 22:30N 26°43' W 036°55'0 0.3 25.0
2014-Nov-21 21:45N 26°43' W 036°55'1 0.4 25.0
2014-Nov-21 20:15N 26°44' W 036°55'0 0.0 25.0
2014-Nov-21 20:00N 26°44' W 036°55'2 9.7 25.0
2014-Nov-21 19:45N 26°46' W 036°53'2 9.7 25.0
2014-Nov-21 19:30N 26°44' W 036°55'2 1.6 25.0
2014-Nov-21 18:00N 26°46' W 036°53'0 0.0 25.0
2014-Nov-21 16:00N 26°46' W 036°53'2 0.4 25.0
2014-Nov-21 12:15N 26°46' W 036°52'0 0.0 25.0
2014-Nov-21 12:00N 26°46' W 036°52'0 0.0 25.0
2014-Nov-21 08:30N 26°46' W 036°52'1 2.4 24.9
2014-Nov-21 08:15N 26°46' W 036°52'1 2.4 24.9
2014-Nov-21 08:00N 26°46' W 036°52'0 0.0 24.9
2014-Nov-21 07:45N 26°46' W 036°52'1 0.8 24.9
2014-Nov-21 06:45N 26°46' W 036°52'311.6 24.9
2014-Nov-21 06:30N 26°49' W 036°50'0 0.0 24.9
2014-Nov-21 04:45N 26°49' W 036°50'0 0.0 25.0
2014-Nov-21 04:30N 26°49' W 036°50'0 0.0 25.0
2014-Nov-21 00:30N 26°49' W 036°50'1 0.7 25.1
2014-Nov-20 23:45N 26°49' W 036°51'1 1.1 25.1
2014-Nov-20 22:45N 26°49' W 036°50'1 0.3 25.1
2014-Nov-20 20:45N 26°48' W 036°50'0 0.0 25.1
2014-Nov-20 20:30N 26°48' W 036°50'0 0.0 25.1
2014-Nov-20 20:15N 26°48' W 036°50'0 0.0 25.1
2014-Nov-20 20:00N 26°48' W 036°50'0 0.0 25.1
2014-Nov-20 19:45N 26°48' W 036°50'1 0.5 25.1
2014-Nov-20 18:30N 26°49' W 036°50'0 0.0 25.1
2014-Nov-20 18:15N 26°49' W 036°50'0 0.0 25.1
2014-Nov-20 18:00N 26°49' W 036°50'2 1.0 25.1
2014-Nov-20 16:15N 26°49' W 036°48'0 0.0 25.2
2014-Nov-20 16:00N 26°49' W 036°48'1 0.4 25.2
2014-Nov-20 12:30N 26°50' W 036°47'0 0.0 25.2
2014-Nov-20 12:15N 26°50' W 036°47'1 1.8 25.2
2014-Nov-20 11:30N 26°51' W 036°46'0 0.0 25.2
2014-Nov-20 09:00N 26°51' W 036°46'1 1.2 25.2
2014-Nov-20 08:30N 26°52' W 036°46'1 2.4 25.2
2014-Nov-20 08:15N 26°51' W 036°46'1 0.6 25.2
2014-Nov-20 07:15N 26°52' W 036°46'1 1.2 25.2
2014-Nov-20 06:45N 26°52' W 036°46'0 0.0 25.2
2014-Nov-20 05:00N 26°52' W 036°46'2 6.4 25.2
2014-Nov-20 04:45N 26°53' W 036°45'1 0.1 25.2
2014-Nov-20 00:45N 26°54' W 036°45'1 0.7 25.2
2014-Nov-20 00:00N 26°54' W 036°46'1 1.1 25.3
2014-Nov-19 23:15N 26°55' W 036°45'0 0.0 25.3
2014-Nov-19 23:00N 26°55' W 036°45'1 0.8 25.3
2014-Nov-19 21:15N 26°53' W 036°44'0 0.0 25.3
2014-Nov-19 19:45N 26°53' W 036°44'1 1.1 25.3
2014-Nov-19 19:00N 26°54' W 036°45'0 0.0 25.3
2014-Nov-19 18:30N 26°54' W 036°45'0 0.0 25.3
2014-Nov-19 18:15N 26°54' W 036°45'2 0.9 25.3
2014-Nov-19 16:30N 26°54' W 036°43'0 0.0 25.4
2014-Nov-19 16:15N 26°54' W 036°43'1 0.7 25.4
2014-Nov-19 14:45N 26°54' W 036°42'0 0.0 25.3
2014-Nov-19 13:30N 26°54' W 036°42'1 0.7 25.3
2014-Nov-19 12:45N 26°54' W 036°41'1 0.7 25.3
2014-Nov-19 12:00N 26°54' W 036°41'0 0.0 25.3
2014-Nov-19 11:45N 26°54' W 036°41'0 0.0 25.3
2014-Nov-19 09:00N 26°54' W 036°41'0 0.0 25.3
2014-Nov-19 08:45N 26°54' W 036°41'1 1.1 25.3
2014-Nov-19 07:45N 26°54' W 036°40'1 1.1 25.3
2014-Nov-19 07:00N 26°55' W 036°40'1 0.5 25.3
2014-Nov-19 05:15N 26°55' W 036°40'1 4.3 25.3
2014-Nov-19 05:00N 26°55' W 036°38'0 0.0 25.3
2014-Nov-19 03:30N 26°55' W 036°38'0 0.0 25.3
2014-Nov-18 23:30N 26°55' W 036°38'1 1.1 25.3
2014-Nov-18 22:45N 26°55' W 036°38'0 0.0 25.3
2014-Nov-18 21:45N 26°55' W 036°38'1 0.6 25.3
2014-Nov-18 20:00N 26°55' W 036°37'0 0.6 25.3
2014-Nov-18 19:30N 26°55' W 036°37'0 0.0 25.3
2014-Nov-18 19:15N 26°55' W 036°37'0 0.4 25.3
2014-Nov-18 18:30N 26°55' W 036°37'0 0.2 25.3
2014-Nov-18 17:00N 26°55' W 036°37'0 0.0 25.3
2014-Nov-18 16:45N 26°55' W 036°37'0 0.0 25.3
2014-Nov-18 16:30N 26°55' W 036°37'2 1.5 25.3
2014-Nov-18 15:00N 26°56' W 036°35'2 8.9 25.3
2014-Nov-18 14:45N 26°55' W 036°37'5 3.1 25.3
2014-Nov-18 13:15N 26°56' W 036°32'0 0.4 25.3
2014-Nov-18 12:15N 26°56' W 036°32'0 0.0 25.3
2014-Nov-18 11:30N 26°56' W 036°32'0 0.0 25.4
2014-Nov-18 11:15N 26°56' W 036°32'2 0.5 25.4
2014-Nov-18 08:00N 26°56' W 036°30'2 6.9 25.5
2014-Nov-18 07:45N 26°56' W 036°32'2 3.4 25.5
2014-Nov-18 07:15N 26°56' W 036°30'0 0.0 25.5
2014-Nov-18 07:00N 26°56' W 036°30'1 0.3 25.5
2014-Nov-18 05:15N 26°57' W 036°30'0 0.0 25.6
2014-Nov-18 03:45N 26°57' W 036°30'0 0.0 25.5
2014-Nov-18 03:30N 26°57' W 036°30'2 0.6 25.6
2014-Nov-18 00:00N 26°58' W 036°28'0 0.0 25.6
2014-Nov-17 23:45N 26°58' W 036°28'1 1.2 25.6
2014-Nov-17 23:15N 26°57' W 036°28'1 4.3 25.6
2014-Nov-17 23:00N 26°57' W 036°26'1 0.2 25.7
2014-Nov-17 19:45N 26°58' W 036°26'1 0.6 25.7
2014-Nov-17 18:45N 26°57' W 036°26'0 0.0 25.7
2014-Nov-17 18:00N 26°57' W 036°26'0 0.0 25.8
2014-Nov-17 17:00N 26°57' W 036°26'0 0.0 25.8
2014-Nov-17 16:45N 26°57' W 036°26'1 0.4 25.8
2014-Nov-17 15:15N 26°58' W 036°26'0 0.0 25.7
2014-Nov-17 15:00N 26°58' W 036°26'1 0.4 25.7
2014-Nov-17 12:45N 26°58' W 036°25'1 4.3 25.6
2014-Nov-17 12:30N 26°58' W 036°24'0 0.0 25.6
2014-Nov-17 11:45N 26°58' W 036°24'0 0.0 25.6
2014-Nov-17 11:00N 26°58' W 036°24'1 0.2 25.5
2014-Nov-17 08:30N 26°58' W 036°24'1 4.3 25.5
2014-Nov-17 08:15N 26°58' W 036°25'1 1.4 25.5
2014-Nov-17 07:30N 26°58' W 036°24'0 0.0 25.5
2014-Nov-17 07:15N 26°58' W 036°24'0 0.0 25.5
2014-Nov-17 07:00N 26°58' W 036°24'0 0.0 25.5
2014-Nov-17 06:45N 26°58' W 036°24'0 0.0 25.5
2014-Nov-17 05:30N 26°58' W 036°24'0 0.0 25.5
2014-Nov-17 05:15N 26°58' W 036°24'1 0.7 25.6
2014-Nov-17 03:45N 26°58' W 036°23'0 0.0 25.6
2014-Nov-17 00:15N 26°58' W 036°23'0 0.0 25.6
2014-Nov-17 00:00N 26°58' W 036°23'1 1.6 25.6
2014-Nov-16 23:30N 26°57' W 036°22'0 0.0 25.7
2014-Nov-16 23:15N 26°57' W 036°22'1 0.9 25.7
2014-Nov-16 22:30N 26°57' W 036°22'1 0.3 25.7
2014-Nov-16 20:15N 26°56' W 036°22'1 2.4 25.9
2014-Nov-16 20:00N 26°57' W 036°22'1 1.2 25.9
2014-Nov-16 19:30N 26°56' W 036°22'0 0.0 25.9
2014-Nov-16 19:00N 26°56' W 036°22'1 1.1 25.9
2014-Nov-16 18:30N 26°56' W 036°21'1 1.0 26.0
2014-Nov-16 17:15N 26°56' W 036°20'0 0.0 26.1
2014-Nov-16 17:00N 26°56' W 036°20'0 0.0 26.1
2014-Nov-16 15:15N 26°56' W 036°20'1 0.5 25.9
2014-Nov-16 13:00N 26°57' W 036°20'0 0.0 25.7
2014-Nov-16 12:45N 26°57' W 036°20'1 1.1 25.7
2014-Nov-16 12:15N 26°56' W 036°20'0 0.0 25.6
2014-Nov-16 12:00N 26°56' W 036°20'1 0.7 25.6
2014-Nov-16 11:15N 26°56' W 036°19'1 0.4 25.6
2014-Nov-16 09:00N 26°56' W 036°20'1 3.2 25.5
2014-Nov-16 08:45N 26°56' W 036°19'1 0.6 25.5
2014-Nov-16 07:30N 26°56' W 036°20'0 0.0 25.5
2014-Nov-16 07:15N 26°56' W 036°20'1 2.1 25.5
2014-Nov-16 07:00N 26°56' W 036°19'1 1.2 25.5
2014-Nov-16 06:00N 26°55' W 036°19'0 0.0 25.5
2014-Nov-16 05:45N 26°55' W 036°19'0 0.0 25.5
2014-Nov-16 05:30N 26°55' W 036°19'2 1.5 25.5
2014-Nov-16 04:00N 26°54' W 036°17'0 0.0 25.5
2014-Nov-16 00:30N 26°54' W 036°17'   25.6

Dump ship's entire track history